createdAt,value
2022-08-28T00:01:33.007Z,18.50
2022-08-28T00:06:34.869Z,18.50
2022-08-28T00:11:37.564Z,18.40
2022-08-28T00:16:39.556Z,18.60
2022-08-28T00:21:41.884Z,18.40
2022-08-28T00:27:02.570Z,18.40
2022-08-28T00:32:04.772Z,18.30
2022-08-28T00:37:07.487Z,18.30
2022-08-28T00:42:10.271Z,18.10
2022-08-28T00:47:12.954Z,18.10
2022-08-28T00:52:16.286Z,18.10
2022-08-28T00:57:52.216Z,18.00
2022-08-28T01:02:54.046Z,17.90
2022-08-28T01:07:58.789Z,17.90
2022-08-28T01:13:01.615Z,17.80
2022-08-28T01:18:08.417Z,17.80
2022-08-28T01:23:20.820Z,17.70
2022-08-28T01:28:22.603Z,17.80
2022-08-28T01:33:28.024Z,17.70
2022-08-28T01:38:30.251Z,17.70
2022-08-28T01:43:32.165Z,17.60
2022-08-28T01:48:37.536Z,17.60
2022-08-28T01:53:39.799Z,17.50
2022-08-28T01:58:41.843Z,17.60
2022-08-28T02:03:44.011Z,17.50
2022-08-28T02:08:47.024Z,17.50
2022-08-28T02:13:50.746Z,17.40
2022-08-28T02:18:53.719Z,17.40
2022-08-28T02:23:55.524Z,17.30
2022-08-28T02:28:58.796Z,17.30
2022-08-28T02:34:00.816Z,17.30
2022-08-28T02:39:02.880Z,17.50
2022-08-28T02:44:05.023Z,17.70
2022-08-28T02:49:06.790Z,17.70
2022-08-28T02:54:08.581Z,17.40
2022-08-28T02:59:10.894Z,17.40
2022-08-28T03:04:13.056Z,17.40
2022-08-28T03:09:14.812Z,17.30
2022-08-28T03:14:16.621Z,17.20
2022-08-28T03:19:18.870Z,17.40
2022-08-28T03:24:20.957Z,17.50
2022-08-28T03:29:23.019Z,17.50
2022-08-28T03:34:24.795Z,17.50
2022-08-28T03:39:26.573Z,17.50
2022-08-28T03:44:28.368Z,17.50
2022-08-28T03:49:31.148Z,17.70
2022-08-28T03:54:32.973Z,17.80
2022-08-28T03:59:35.709Z,17.80
2022-08-28T04:04:37.538Z,17.90
2022-08-28T04:09:39.499Z,17.90
2022-08-28T04:14:41.668Z,18.00
2022-08-28T04:19:45.089Z,18.10
2022-08-28T04:24:46.919Z,18.20
2022-08-28T04:29:49.200Z,18.30
2022-08-28T04:34:51.433Z,18.40
2022-08-28T04:39:53.629Z,18.50
2022-08-28T04:44:59.664Z,18.60
2022-08-28T04:50:02.455Z,18.80
2022-08-28T04:55:05.072Z,19.10
2022-08-28T05:00:09.437Z,19.40
2022-08-28T05:05:11.743Z,19.80
2022-08-28T05:10:13.528Z,19.90
2022-08-28T05:15:15.347Z,20.00
2022-08-28T05:20:17.155Z,20.60
2022-08-28T05:25:19.004Z,20.90
2022-08-28T05:30:21.064Z,21.00
2022-08-28T05:35:22.912Z,21.00
2022-08-28T05:40:24.825Z,21.10
2022-08-28T05:45:26.631Z,21.40
2022-08-28T05:50:28.479Z,21.60
2022-08-28T05:55:30.259Z,21.90
2022-08-28T06:00:32.874Z,22.20
2022-08-28T06:05:34.696Z,22.10
2022-08-28T06:10:44.003Z,22.20
2022-08-28T06:15:48.317Z,22.20
2022-08-28T06:20:50.180Z,22.50
2022-08-28T06:25:52.743Z,22.60
2022-08-28T06:31:18.556Z,22.80
2022-08-28T06:36:17.159Z,23.40
2022-08-28T06:41:19.715Z,25.20
2022-08-28T06:46:22.022Z,29.50
2022-08-28T06:51:25.266Z,33.50
2022-08-28T06:56:27.328Z,36.00
2022-08-28T07:01:33.116Z,36.50
2022-08-28T07:06:38.272Z,35.80
2022-08-28T07:11:43.442Z,37.50
2022-08-28T07:16:45.282Z,37.00
2022-08-28T07:21:48.077Z,36.90
2022-08-28T07:26:49.927Z,38.10
2022-08-28T07:31:55.893Z,38.90
2022-08-28T07:37:04.048Z,39.80
2022-08-28T07:42:06.186Z,41.30
2022-08-28T07:47:08.678Z,40.90
2022-08-28T07:52:12.400Z,39.90
2022-08-28T07:57:15.211Z,40.00
2022-08-28T08:02:17.051Z,39.80
2022-08-28T08:07:20.406Z,40.30
2022-08-28T08:12:22.412Z,41.30
2022-08-28T08:17:24.291Z,41.30
2022-08-28T08:22:26.155Z,41.60
2022-08-28T08:27:28.613Z,42.00
2022-08-28T08:32:30.431Z,42.90
2022-08-28T08:37:32.446Z,38.70
2022-08-28T08:42:37.416Z,40.20
2022-08-28T08:47:51.376Z,41.00
2022-08-28T08:53:15.041Z,41.30
2022-08-28T08:58:32.892Z,41.90
2022-08-28T09:04:05.247Z,42.70
2022-08-28T09:09:17.017Z,42.20
2022-08-28T09:14:21.776Z,41.90
2022-08-28T09:19:29.276Z,41.10
2022-08-28T09:24:36.486Z,39.90
2022-08-28T09:29:47.403Z,39.40
2022-08-28T09:35:08.120Z,40.20
2022-08-28T09:40:27.258Z,40.00
2022-08-28T09:45:29.655Z,40.70
2022-08-28T09:50:40.807Z,39.60
2022-08-28T09:55:48.328Z,39.40
2022-08-28T10:01:16.149Z,40.70
2022-08-28T10:06:29.408Z,39.60
2022-08-28T10:11:56.513Z,39.20
2022-08-28T10:17:19.960Z,40.00
2022-08-28T10:22:32.489Z,36.00
2022-08-28T10:27:37.207Z,33.60
2022-08-28T10:32:41.848Z,32.00
2022-08-28T10:37:52.761Z,31.40
2022-08-28T10:43:05.239Z,30.90
2022-08-28T10:48:24.643Z,30.60
2022-08-28T10:54:07.835Z,30.60
2022-08-28T10:59:09.614Z,30.30
2022-08-28T11:04:25.181Z,30.60
2022-08-28T11:09:47.743Z,30.40
2022-08-28T11:14:53.840Z,30.70
2022-08-28T11:20:01.571Z,30.80
2022-08-28T11:25:09.644Z,31.00
2022-08-28T11:30:11.695Z,30.80
2022-08-28T11:35:45.703Z,30.70
2022-08-28T11:41:09.556Z,30.80
2022-08-28T11:46:31.584Z,30.70
2022-08-28T11:52:06.128Z,30.80
2022-08-28T11:57:28.219Z,30.70
2022-08-28T12:02:39.343Z,30.60
2022-08-28T12:07:44.528Z,30.40
2022-08-28T12:12:46.284Z,30.30
2022-08-28T12:17:50.180Z,30.20
2022-08-28T12:22:54.689Z,30.70
2022-08-28T12:28:00.243Z,30.50
2022-08-28T12:33:02.048Z,30.20
2022-08-28T12:38:07.187Z,30.10
2022-08-28T12:43:15.336Z,30.00
2022-08-28T12:48:33.874Z,30.10
2022-08-28T12:53:44.771Z,30.50
2022-08-28T12:58:47.848Z,30.30
2022-08-28T13:03:52.983Z,30.40
2022-08-28T13:09:03.271Z,30.50
2022-08-28T13:14:06.250Z,30.40
2022-08-28T13:19:08.048Z,30.40
2022-08-28T13:24:22.157Z,30.10
2022-08-28T13:29:24.826Z,30.10
2022-08-28T13:34:29.716Z,30.20
2022-08-28T13:39:33.486Z,30.20
2022-08-28T13:44:53.164Z,30.20
2022-08-28T13:49:54.946Z,30.30
2022-08-28T13:54:56.765Z,30.30
2022-08-28T14:00:01.410Z,30.20
2022-08-28T14:05:03.693Z,30.30
2022-08-28T14:10:06.256Z,30.40
2022-08-28T14:15:08.208Z,30.20
2022-08-28T14:20:10.662Z,30.10
2022-08-28T14:25:12.590Z,30.00
2022-08-28T14:30:14.829Z,30.10
2022-08-28T14:35:16.666Z,29.90
2022-08-28T14:40:18.574Z,29.80
2022-08-28T14:45:20.339Z,29.80
2022-08-28T14:50:22.349Z,29.60
2022-08-28T14:55:24.139Z,29.60
2022-08-28T15:00:26.042Z,29.60
2022-08-28T15:05:27.848Z,29.70
2022-08-28T15:10:29.762Z,29.40
2022-08-28T15:15:33.268Z,29.40
2022-08-28T15:20:44.108Z,29.50
2022-08-28T15:25:45.972Z,29.40
2022-08-28T15:30:48.052Z,29.00
2022-08-28T15:35:55.401Z,28.70
2022-08-28T15:41:15.970Z,28.80
2022-08-28T15:46:18.026Z,28.50
2022-08-28T15:51:22.773Z,28.20
2022-08-28T15:56:27.649Z,27.80
2022-08-28T16:01:29.634Z,27.60
2022-08-28T16:06:31.624Z,27.40
2022-08-28T16:11:33.935Z,27.10
2022-08-28T16:16:40.072Z,26.90
2022-08-28T16:21:48.766Z,26.70
2022-08-28T16:26:50.613Z,26.40
2022-08-28T16:31:52.557Z,26.20
2022-08-28T16:36:54.367Z,26.00
2022-08-28T16:41:56.346Z,25.80
2022-08-28T16:46:58.179Z,25.60
2022-08-28T16:52:00.141Z,25.40
2022-08-28T16:57:02.032Z,25.30
2022-08-28T17:02:03.877Z,24.90
2022-08-28T17:07:07.493Z,24.70
2022-08-28T17:12:09.395Z,24.30
2022-08-28T17:17:13.467Z,24.10
2022-08-28T17:22:33.380Z,23.80
2022-08-28T17:27:36.667Z,23.50
2022-08-28T17:32:38.534Z,23.30
2022-08-28T17:37:40.810Z,23.00
2022-08-28T17:42:44.492Z,22.80
2022-08-28T17:47:46.304Z,22.70
2022-08-28T17:52:48.470Z,22.50
2022-08-28T17:57:51.341Z,22.40
2022-08-28T18:02:54.399Z,22.20
2022-08-28T18:07:56.262Z,22.10
2022-08-28T18:12:58.031Z,22.10
2022-08-28T18:18:00.139Z,22.10
2022-08-28T18:23:02.494Z,22.00
2022-08-28T18:28:05.884Z,21.90
2022-08-28T18:33:08.666Z,21.80
2022-08-28T18:38:11.931Z,21.70
2022-08-28T18:43:14.250Z,21.50
2022-08-28T18:48:16.467Z,21.40
2022-08-28T18:53:21.526Z,21.30
2022-08-28T18:58:24.002Z,21.20
2022-08-28T19:03:26.726Z,21.00
2022-08-28T19:08:28.827Z,20.90
2022-08-28T19:13:30.714Z,20.80
2022-08-28T19:18:32.516Z,20.80
2022-08-28T19:23:34.395Z,20.80
2022-08-28T19:28:37.012Z,20.70
2022-08-28T19:33:42.036Z,20.60
2022-08-28T19:38:44.021Z,20.50
2022-08-28T19:43:45.795Z,20.50
2022-08-28T19:48:52.776Z,20.30
2022-08-28T19:53:58.704Z,20.30
2022-08-28T19:59:02.565Z,20.20
2022-08-28T20:04:06.120Z,20.00
2022-08-28T20:09:12.563Z,19.90
2022-08-28T20:14:17.483Z,19.80
2022-08-28T20:19:20.009Z,19.70
2022-08-28T20:24:24.186Z,19.60
2022-08-28T20:29:26.165Z,19.60
2022-08-28T20:34:28.001Z,19.50
2022-08-28T20:39:29.851Z,19.40
2022-08-28T20:44:32.899Z,19.40
2022-08-28T20:49:38.979Z,19.40
2022-08-28T20:54:44.869Z,19.40
2022-08-28T20:59:47.747Z,19.40
2022-08-28T21:04:50.801Z,19.20
2022-08-28T21:10:07.137Z,19.10
2022-08-28T21:15:12.423Z,19.00
2022-08-28T21:20:16.125Z,18.90
2022-08-28T21:25:21.212Z,18.90
2022-08-28T21:30:23.178Z,18.90
2022-08-28T21:35:27.305Z,18.80
2022-08-28T21:40:29.099Z,18.70
2022-08-28T21:45:30.968Z,18.60
2022-08-28T21:50:32.727Z,18.60
2022-08-28T21:55:34.549Z,18.50
2022-08-28T22:00:36.364Z,18.50
2022-08-28T22:05:39.390Z,18.40
2022-08-28T22:10:43.569Z,18.40
2022-08-28T22:15:46.794Z,18.40
2022-08-28T22:21:07.561Z,18.30
2022-08-28T22:26:12.727Z,18.30
2022-08-28T22:31:14.618Z,18.30
2022-08-28T22:36:17.455Z,18.20
2022-08-28T22:41:19.268Z,18.20
2022-08-28T22:46:21.510Z,18.30
2022-08-28T22:51:23.317Z,18.00
2022-08-28T22:56:25.133Z,18.00
2022-08-28T23:01:27.033Z,18.00
2022-08-28T23:06:30.413Z,17.90
2022-08-28T23:11:32.302Z,17.90
2022-08-28T23:16:35.339Z,17.90
2022-08-28T23:21:40.813Z,17.80
2022-08-28T23:26:46.341Z,17.90
2022-08-28T23:31:48.465Z,17.90
2022-08-28T23:36:50.418Z,17.90
2022-08-28T23:41:53.102Z,17.90
2022-08-28T23:46:54.936Z,17.80
2022-08-28T23:51:57.836Z,17.60
2022-08-28T23:57:01.525Z,17.60
